Rhodes, Greece

3:22 PM EEST on August 28, 2014 (GMT +0300)
Diagoras | Change Station
CLOSE
Current Station
Airport
Location: Rhodes,
Elevation: 36 ft
Nearby Weather Stations

Elev 36 ft 36.41 °N, 28.09 °E | Updated 32 minutes ago

Clear
Clear
86 °F
Feels Like 93 °F
N
15
Wind Variable Wind from WSW

Today
High -- | Low -- °F
--% Chance of Precip.
Yesterday
High -- | Low -- °F
Precip. -- in
6:35 AM 7:41 PM
Waxing Crescent, 8% visible
Pressure 29.68 in
Visibility -9999.0 miles
Clouds
Heat Index 93 °F
Dew Point 73 °F
Humidity 66%
Rainfall 0.00 in
Snow Depth Not available.
UV Not available.
Pollen Not available.
Air Quality Not available.
Flu Activity Not available.
METAR LGRP 281150Z 25013KT CAVOK 30/23 Q1005

More Conditions Fewer Conditions

Pressure 29.68 in
Visibility -9999.0 miles
Clouds
Heat Index 93 °F
Dew Point 73 °F
Humidity 66%
Rainfall 0.00 in
Snow Depth Not available.
UV Not available.
Pollen Not available.
Air Quality Not available.
Flu Activity Not available.
METAR LGRP 281150Z 25013KT CAVOK 30/23 Q1005

More Conditions Fewer Conditions

10-Day Weather Forecast

Almanac

Astronomy

Aug. 28, 2014 Rise Set
Actual Time 6:35 AM EEST 7:41 PM EEST
Civil Twilight 6:09 AM EEST 8:08 PM EEST
Nautical Twilight 5:37 AM EEST 8:39 PM EEST
Astronomical Twilight 5:04 AM EEST 9:12 PM EEST
Moon 9:03 AM EEST 9:01 PM EEST
Length of Visible Light 13h 59m
Length of Day
13h 06m
Tomorrow will be 2m 11s shorter.
Waxing Crescent, 8% of the Moon is Illuminated
Today
Waxing Crescent
Sep 2
First Quarter
Sep 8
Full
Sep 15
Last Quarter
Sep 24
New

Yesterday's Extremes

Country Highs Country Lows

Community

WunderPhotos

Upload Photos

1,747,938 photos uploaded!

Nearby

Snow Depth

Not available.

Earthquake Activity

City Distance Mag. Time & Date
No recent earthquake activity has been reported nearby.
Minimum magnitude displayed is 2.5.

Coastal Water Temperatures

Place Temperature
No Stations Reporting

Nearby Weather Stations